Penzance, United Kingdom
Current Conditions -  °F | °C
As of 11:50 AM on Saturday 20 Dec 2014 (Local Time) from EGDR Reporting Station
Overcast Overcast  
Wind Chill: 45°   Ceiling: 3500
Heat Index: 48°   Visibility: 6mi
Dew Point: 41°   Wind: 8mph
Humidity: 76%   Direction: 280°W
Pressure: 30.48"   Gusts: NA
Location:  50.12°N, 5.54°W
Report Text: EGDR 201150Z 28007KT 9999 FEW024 SCT030 OVC035 09/05 Q1032 BLU TEMPO SCT022 WHT
Loading
Personal Weather Stations






























Interactive Weather Map New forecast layout! Learn more

10-Day Weather Forecast

Advertisements
Track Severe Weather on mobile